Аэропорт: Саратов-Центральный. Саратов

ICAO: UWSS

METAR:
2018/11/21 18:00
UWSS 211800Z 31004G09MPS CAVOK M03/M04 Q1013 R30/010095 NOSIG RMK QFE746
METAR:
2016/08/14 06:12
TAF TAF UWSS 140500Z 1406/1418 03003MPS 9999 SCT040CB 
      TEMPO 1406/1418 VRB18MPS 2100 -TSRAGR SQ BKN007 BKN030CB